sensor_id;sensor_type;location;lat;lon;timestamp;P1;durP1;ratioP1;P2;durP2;ratioP2
30824;SDS011;17550;45.486;12.222;2023-02-01T00:01:49;229.40;;;115.22;;
30824;SDS011;17550;45.486;12.222;2023-02-01T00:04:14;241.90;;;118.28;;
30824;SDS011;17550;45.486;12.222;2023-02-01T00:06:40;235.93;;;116.13;;
30824;SDS011;17550;45.486;12.222;2023-02-01T00:09:06;228.45;;;115.50;;
30824;SDS011;17550;45.486;12.222;2023-02-01T00:11:32;229.65;;;117.28;;
30824;SDS011;17550;45.486;12.222;2023-02-01T00:13:58;222.10;;;112.28;;
30824;SDS011;17550;45.486;12.222;2023-02-01T00:16:25;242.27;;;120.53;;
30824;SDS011;17550;45.486;12.222;2023-02-01T00:19:13;233.45;;;120.10;;
30824;SDS011;17550;45.486;12.222;2023-02-01T00:21:39;222.02;;;113.85;;
30824;SDS011;17550;45.486;12.222;2023-02-01T00:24:06;246.10;;;121.25;;
30824;SDS011;17550;45.486;12.222;2023-02-01T00:26:36;239.35;;;122.32;;
30824;SDS011;17550;45.486;12.222;2023-02-01T00:29:07;229.52;;;113.60;;
30824;SDS011;17550;45.486;12.222;2023-02-01T00:31:39;236.88;;;121.15;;
30824;SDS011;17550;45.486;12.222;2023-02-01T00:34:05;246.30;;;120.53;;
30824;SDS011;17550;45.486;12.222;2023-02-01T00:36:31;236.57;;;117.97;;
30824;SDS011;17550;45.486;12.222;2023-02-01T00:38:57;229.82;;;116.95;;
30824;SDS011;17550;45.486;12.222;2023-02-01T00:41:22;233.77;;;119.28;;
30824;SDS011;17550;45.486;12.222;2023-02-01T00:43:49;241.20;;;119.05;;
30824;SDS011;17550;45.486;12.222;2023-02-01T00:46:16;245.95;;;123.10;;
30824;SDS011;17550;45.486;12.222;2023-02-01T00:48:42;231.45;;;118.25;;
30824;SDS011;17550;45.486;12.222;2023-02-01T00:51:10;218.88;;;110.82;;
30824;SDS011;17550;45.486;12.222;2023-02-01T00:53:37;230.20;;;112.78;;
30824;SDS011;17550;45.486;12.222;2023-02-01T00:56:03;224.55;;;112.25;;
30824;SDS011;17550;45.486;12.222;2023-02-01T00:58:30;221.73;;;113.20;;
30824;SDS011;17550;45.486;12.222;2023-02-01T01:01:07;214.02;;;110.38;;
30824;SDS011;17550;45.486;12.222;2023-02-01T01:03:35;207.95;;;110.15;;
30824;SDS011;17550;45.486;12.222;2023-02-01T01:06:04;215.38;;;113.03;;
30824;SDS011;17550;45.486;12.222;2023-02-01T01:08:32;210.40;;;110.60;;
30824;SDS011;17550;45.486;12.222;2023-02-01T01:10:58;211.57;;;107.80;;
30824;SDS011;17550;45.486;12.222;2023-02-01T01:13:23;215.93;;;107.85;;
30824;SDS011;17550;45.486;12.222;2023-02-01T01:15:49;204.52;;;107.78;;
30824;SDS011;17550;45.486;12.222;2023-02-01T01:18:15;204.70;;;106.03;;
30824;SDS011;17550;45.486;12.222;2023-02-01T01:20:41;211.50;;;106.43;;
30824;SDS011;17550;45.486;12.222;2023-02-01T01:23:07;199.93;;;104.07;;
30824;SDS011;17550;45.486;12.222;2023-02-01T01:25:37;211.43;;;102.82;;
30824;SDS011;17550;45.486;12.222;2023-02-01T01:28:03;196.93;;;105.32;;
30824;SDS011;17550;45.486;12.222;2023-02-01T01:30:29;213.52;;;106.35;;
30824;SDS011;17550;45.486;12.222;2023-02-01T01:32:55;201.73;;;103.88;;
30824;SDS011;17550;45.486;12.222;2023-02-01T01:35:20;199.25;;;102.47;;
30824;SDS011;17550;45.486;12.222;2023-02-01T01:37:46;214.43;;;106.78;;
30824;SDS011;17550;45.486;12.222;2023-02-01T01:40:12;196.25;;;104.53;;
30824;SDS011;17550;45.486;12.222;2023-02-01T01:42:39;197.25;;;104.50;;
30824;SDS011;17550;45.486;12.222;2023-02-01T01:45:07;209.23;;;103.43;;
30824;SDS011;17550;45.486;12.222;2023-02-01T01:47:41;203.20;;;102.45;;
30824;SDS011;17550;45.486;12.222;2023-02-01T01:50:13;191.23;;;99.72;;
30824;SDS011;17550;45.486;12.222;2023-02-01T01:52:42;199.95;;;103.55;;
30824;SDS011;17550;45.486;12.222;2023-02-01T01:55:09;200.48;;;105.53;;
30824;SDS011;17550;45.486;12.222;2023-02-01T01:57:36;193.32;;;100.75;;
30824;SDS011;17550;45.486;12.222;2023-02-01T02:00:09;197.68;;;102.47;;
30824;SDS011;17550;45.486;12.222;2023-02-01T02:02:41;199.20;;;101.13;;
30824;SDS011;17550;45.486;12.222;2023-02-01T02:05:09;192.05;;;97.43;;
30824;SDS011;17550;45.486;12.222;2023-02-01T02:07:37;199.85;;;101.63;;
30824;SDS011;17550;45.486;12.222;2023-02-01T02:10:07;195.90;;;102.38;;
30824;SDS011;17550;45.486;12.222;2023-02-01T02:12:37;192.13;;;100.43;;
30824;SDS011;17550;45.486;12.222;2023-02-01T02:15:07;201.55;;;104.65;;
30824;SDS011;17550;45.486;12.222;2023-02-01T02:23:17;208.68;;;105.22;;
30824;SDS011;17550;45.486;12.222;2023-02-01T02:45:17;185.32;;;96.20;;
30824;SDS011;17550;45.486;12.222;2023-02-01T02:48:38;192.35;;;98.38;;
30824;SDS011;17550;45.486;12.222;2023-02-01T02:54:36;197.57;;;100.63;;
30824;SDS011;17550;45.486;12.222;2023-02-01T02:57:23;189.50;;;96.00;;
30824;SDS011;17550;45.486;12.222;2023-02-01T03:00:12;186.82;;;97.38;;
30824;SDS011;17550;45.486;12.222;2023-02-01T03:02:58;197.10;;;101.93;;
30824;SDS011;17550;45.486;12.222;2023-02-01T03:05:44;183.65;;;97.50;;
30824;SDS011;17550;45.486;12.222;2023-02-01T03:08:12;175.80;;;95.47;;
30824;SDS011;17550;45.486;12.222;2023-02-01T03:10:47;174.20;;;92.20;;
30824;SDS011;17550;45.486;12.222;2023-02-01T03:13:23;188.85;;;95.78;;
30824;SDS011;17550;45.486;12.222;2023-02-01T03:21:04;183.77;;;95.60;;
30824;SDS011;17550;45.486;12.222;2023-02-01T03:23:35;180.35;;;94.63;;
30824;SDS011;17550;45.486;12.222;2023-02-01T03:26:03;173.43;;;92.72;;
30824;SDS011;17550;45.486;12.222;2023-02-01T03:28:34;182.07;;;95.32;;
30824;SDS011;17550;45.486;12.222;2023-02-01T03:31:04;179.13;;;93.03;;
30824;SDS011;17550;45.486;12.222;2023-02-01T03:33:30;172.70;;;94.35;;
30824;SDS011;17550;45.486;12.222;2023-02-01T03:36:12;181.23;;;92.70;;
30824;SDS011;17550;45.486;12.222;2023-02-01T03:39:12;170.60;;;90.30;;
30824;SDS011;17550;45.486;12.222;2023-02-01T03:42:09;173.55;;;88.88;;
30824;SDS011;17550;45.486;12.222;2023-02-01T03:44:50;179.65;;;91.85;;
30824;SDS011;17550;45.486;12.222;2023-02-01T03:47:23;163.73;;;90.70;;
30824;SDS011;17550;45.486;12.222;2023-02-01T03:49:53;170.70;;;91.47;;
30824;SDS011;17550;45.486;12.222;2023-02-01T03:52:32;168.30;;;86.82;;
30824;SDS011;17550;45.486;12.222;2023-02-01T03:55:03;170.38;;;90.38;;
30824;SDS011;17550;45.486;12.222;2023-02-01T03:57:32;172.73;;;92.10;;
30824;SDS011;17550;45.486;12.222;2023-02-01T04:02:36;163.85;;;85.95;;
30824;SDS011;17550;45.486;12.222;2023-02-01T04:05:02;170.13;;;86.93;;
30824;SDS011;17550;45.486;12.222;2023-02-01T04:07:28;168.38;;;90.70;;
30824;SDS011;17550;45.486;12.222;2023-02-01T04:09:53;161.52;;;86.38;;
30824;SDS011;17550;45.486;12.222;2023-02-01T04:12:19;169.93;;;90.15;;
30824;SDS011;17550;45.486;12.222;2023-02-01T04:14:45;165.52;;;86.40;;
30824;SDS011;17550;45.486;12.222;2023-02-01T04:17:10;159.90;;;83.03;;
30824;SDS011;17550;45.486;12.222;2023-02-01T04:19:36;158.48;;;81.80;;
30824;SDS011;17550;45.486;12.222;2023-02-01T04:22:02;153.80;;;81.15;;
30824;SDS011;17550;45.486;12.222;2023-02-01T04:24:27;158.65;;;79.95;;
30824;SDS011;17550;45.486;12.222;2023-02-01T04:26:53;156.60;;;82.57;;
30824;SDS011;17550;45.486;12.222;2023-02-01T04:29:18;153.75;;;81.22;;
30824;SDS011;17550;45.486;12.222;2023-02-01T04:31:44;159.80;;;80.15;;
30824;SDS011;17550;45.486;12.222;2023-02-01T04:34:11;151.75;;;79.28;;
30824;SDS011;17550;45.486;12.222;2023-02-01T04:36:36;153.85;;;78.22;;
30824;SDS011;17550;45.486;12.222;2023-02-01T04:39:02;163.05;;;87.07;;
30824;SDS011;17550;45.486;12.222;2023-02-01T04:41:28;159.13;;;83.97;;
30824;SDS011;17550;45.486;12.222;2023-02-01T04:43:55;159.43;;;84.00;;
30824;SDS011;17550;45.486;12.222;2023-02-01T04:46:20;161.43;;;87.45;;
30824;SDS011;17550;45.486;12.222;2023-02-01T04:48:46;178.32;;;93.07;;
30824;SDS011;17550;45.486;12.222;2023-02-01T04:51:12;168.25;;;91.55;;
30824;SDS011;17550;45.486;12.222;2023-02-01T04:53:38;171.70;;;87.38;;
30824;SDS011;17550;45.486;12.222;2023-02-01T04:56:04;164.38;;;85.65;;
30824;SDS011;17550;45.486;12.222;2023-02-01T04:58:30;166.50;;;87.55;;
30824;SDS011;17550;45.486;12.222;2023-02-01T05:00:56;160.88;;;88.30;;
30824;SDS011;17550;45.486;12.222;2023-02-01T05:03:21;163.20;;;82.72;;
30824;SDS011;17550;45.486;12.222;2023-02-01T05:05:47;161.70;;;85.38;;
30824;SDS011;17550;45.486;12.222;2023-02-01T05:08:14;152.48;;;82.47;;
30824;SDS011;17550;45.486;12.222;2023-02-01T05:10:40;156.32;;;82.32;;
30824;SDS011;17550;45.486;12.222;2023-02-01T05:13:07;164.77;;;84.72;;
30824;SDS011;17550;45.486;12.222;2023-02-01T05:15:52;154.10;;;82.07;;
30824;SDS011;17550;45.486;12.222;2023-02-01T05:18:18;154.85;;;80.82;;
30824;SDS011;17550;45.486;12.222;2023-02-01T05:20:44;152.82;;;77.28;;
30824;SDS011;17550;45.486;12.222;2023-02-01T05:23:09;154.82;;;78.53;;
30824;SDS011;17550;45.486;12.222;2023-02-01T05:25:35;140.40;;;75.53;;
30824;SDS011;17550;45.486;12.222;2023-02-01T05:28:01;143.93;;;80.38;;
30824;SDS011;17550;45.486;12.222;2023-02-01T05:30:26;141.07;;;75.40;;
30824;SDS011;17550;45.486;12.222;2023-02-01T05:32:52;141.88;;;76.38;;
30824;SDS011;17550;45.486;12.222;2023-02-01T05:35:18;153.32;;;80.07;;
30824;SDS011;17550;45.486;12.222;2023-02-01T05:37:44;147.90;;;76.88;;
30824;SDS011;17550;45.486;12.222;2023-02-01T05:40:12;149.70;;;77.38;;
30824;SDS011;17550;45.486;12.222;2023-02-01T05:42:37;140.48;;;74.28;;
30824;SDS011;17550;45.486;12.222;2023-02-01T05:45:03;143.80;;;75.80;;
30824;SDS011;17550;45.486;12.222;2023-02-01T05:47:30;144.68;;;75.95;;
30824;SDS011;17550;45.486;12.222;2023-02-01T05:49:56;143.07;;;73.72;;
30824;SDS011;17550;45.486;12.222;2023-02-01T05:52:22;138.52;;;70.80;;
30824;SDS011;17550;45.486;12.222;2023-02-01T05:54:48;144.13;;;76.47;;
30824;SDS011;17550;45.486;12.222;2023-02-01T05:57:14;135.02;;;70.45;;
30824;SDS011;17550;45.486;12.222;2023-02-01T05:59:40;133.35;;;70.82;;
30824;SDS011;17550;45.486;12.222;2023-02-01T06:02:09;132.85;;;70.82;;
30824;SDS011;17550;45.486;12.222;2023-02-01T06:04:35;125.57;;;66.00;;
30824;SDS011;17550;45.486;12.222;2023-02-01T06:07:01;131.35;;;68.18;;
30824;SDS011;17550;45.486;12.222;2023-02-01T06:09:27;127.68;;;67.47;;
30824;SDS011;17550;45.486;12.222;2023-02-01T06:11:53;135.52;;;67.57;;
30824;SDS011;17550;45.486;12.222;2023-02-01T06:14:19;132.40;;;66.72;;
30824;SDS011;17550;45.486;12.222;2023-02-01T06:16:45;127.35;;;63.88;;
30824;SDS011;17550;45.486;12.222;2023-02-01T06:19:11;142.00;;;68.63;;
30824;SDS011;17550;45.486;12.222;2023-02-01T06:21:37;123.65;;;61.90;;
30824;SDS011;17550;45.486;12.222;2023-02-01T06:24:03;128.07;;;65.35;;
30824;SDS011;17550;45.486;12.222;2023-02-01T06:26:29;126.10;;;64.22;;
30824;SDS011;17550;45.486;12.222;2023-02-01T06:28:55;123.50;;;63.03;;
30824;SDS011;17550;45.486;12.222;2023-02-01T06:31:21;122.43;;;65.53;;
30824;SDS011;17550;45.486;12.222;2023-02-01T06:33:48;131.85;;;69.50;;
30824;SDS011;17550;45.486;12.222;2023-02-01T06:36:13;123.63;;;63.53;;
30824;SDS011;17550;45.486;12.222;2023-02-01T06:38:40;126.10;;;65.05;;
30824;SDS011;17550;45.486;12.222;2023-02-01T06:41:06;126.93;;;67.88;;
30824;SDS011;17550;45.486;12.222;2023-02-01T06:43:32;135.82;;;68.47;;
30824;SDS011;17550;45.486;12.222;2023-02-01T06:46:01;136.02;;;70.43;;
30824;SDS011;17550;45.486;12.222;2023-02-01T06:48:28;131.70;;;69.57;;
30824;SDS011;17550;45.486;12.222;2023-02-01T06:50:54;145.02;;;72.28;;
30824;SDS011;17550;45.486;12.222;2023-02-01T06:53:20;135.00;;;67.68;;
30824;SDS011;17550;45.486;12.222;2023-02-01T06:55:56;141.90;;;68.63;;
30824;SDS011;17550;45.486;12.222;2023-02-01T06:58:32;138.23;;;69.35;;
30824;SDS011;17550;45.486;12.222;2023-02-01T07:01:04;138.70;;;71.53;;
30824;SDS011;17550;45.486;12.222;2023-02-01T07:03:31;150.07;;;73.60;;
30824;SDS011;17550;45.486;12.222;2023-02-01T07:05:57;143.82;;;74.85;;
30824;SDS011;17550;45.486;12.222;2023-02-01T07:08:27;144.82;;;71.95;;
30824;SDS011;17550;45.486;12.222;2023-02-01T07:10:53;137.25;;;70.95;;
30824;SDS011;17550;45.486;12.222;2023-02-01T07:13:19;134.80;;;70.65;;
30824;SDS011;17550;45.486;12.222;2023-02-01T07:15:45;132.85;;;69.90;;
30824;SDS011;17550;45.486;12.222;2023-02-01T07:18:14;136.25;;;67.72;;
30824;SDS011;17550;45.486;12.222;2023-02-01T07:20:41;143.60;;;68.88;;
30824;SDS011;17550;45.486;12.222;2023-02-01T07:23:08;131.23;;;66.47;;
30824;SDS011;17550;45.486;12.222;2023-02-01T07:25:35;135.55;;;70.20;;
30824;SDS011;17550;45.486;12.222;2023-02-01T07:28:01;132.88;;;66.30;;
30824;SDS011;17550;45.486;12.222;2023-02-01T07:30:27;121.10;;;65.82;;
30824;SDS011;17550;45.486;12.222;2023-02-01T07:32:53;138.32;;;72.45;;
30824;SDS011;17550;45.486;12.222;2023-02-01T07:35:18;137.13;;;70.90;;
30824;SDS011;17550;45.486;12.222;2023-02-01T07:37:44;130.07;;;66.90;;
30824;SDS011;17550;45.486;12.222;2023-02-01T07:40:10;136.23;;;71.97;;
30824;SDS011;17550;45.486;12.222;2023-02-01T07:42:36;140.65;;;71.72;;
30824;SDS011;17550;45.486;12.222;2023-02-01T07:45:02;145.10;;;70.68;;
30824;SDS011;17550;45.486;12.222;2023-02-01T07:47:28;144.95;;;70.43;;
30824;SDS011;17550;45.486;12.222;2023-02-01T07:49:54;141.60;;;70.78;;
30824;SDS011;17550;45.486;12.222;2023-02-01T07:52:20;136.65;;;67.72;;
30824;SDS011;17550;45.486;12.222;2023-02-01T07:54:45;133.05;;;69.55;;
30824;SDS011;17550;45.486;12.222;2023-02-01T07:57:11;131.00;;;66.35;;
30824;SDS011;17550;45.486;12.222;2023-02-01T07:59:38;126.03;;;66.45;;
30824;SDS011;17550;45.486;12.222;2023-02-01T08:02:26;128.43;;;66.97;;
30824;SDS011;17550;45.486;12.222;2023-02-01T08:04:52;125.95;;;64.65;;
30824;SDS011;17550;45.486;12.222;2023-02-01T08:07:18;133.23;;;66.88;;
30824;SDS011;17550;45.486;12.222;2023-02-01T08:09:43;130.27;;;66.65;;
30824;SDS011;17550;45.486;12.222;2023-02-01T08:12:09;120.22;;;62.75;;
30824;SDS011;17550;45.486;12.222;2023-02-01T08:14:35;119.53;;;62.25;;
30824;SDS011;17550;45.486;12.222;2023-02-01T08:17:00;121.45;;;62.33;;
30824;SDS011;17550;45.486;12.222;2023-02-01T08:19:26;130.45;;;63.88;;
30824;SDS011;17550;45.486;12.222;2023-02-01T08:21:51;122.63;;;61.30;;
30824;SDS011;17550;45.486;12.222;2023-02-01T08:24:17;117.05;;;61.13;;
30824;SDS011;17550;45.486;12.222;2023-02-01T08:26:43;128.95;;;64.40;;
30824;SDS011;17550;45.486;12.222;2023-02-01T08:29:09;127.50;;;61.78;;
30824;SDS011;17550;45.486;12.222;2023-02-01T08:31:36;114.47;;;58.00;;
30824;SDS011;17550;45.486;12.222;2023-02-01T08:34:05;128.88;;;60.85;;
30824;SDS011;17550;45.486;12.222;2023-02-01T08:36:33;116.53;;;59.03;;
30824;SDS011;17550;45.486;12.222;2023-02-01T08:38:59;113.80;;;59.17;;
30824;SDS011;17550;45.486;12.222;2023-02-01T08:41:26;114.53;;;60.22;;
30824;SDS011;17550;45.486;12.222;2023-02-01T08:43:54;113.25;;;58.78;;
30824;SDS011;17550;45.486;12.222;2023-02-01T08:46:21;104.13;;;55.47;;
30824;SDS011;17550;45.486;12.222;2023-02-01T08:48:48;113.55;;;56.78;;
30824;SDS011;17550;45.486;12.222;2023-02-01T08:51:14;112.28;;;55.25;;
30824;SDS011;17550;45.486;12.222;2023-02-01T08:53:42;111.95;;;56.55;;
30824;SDS011;17550;45.486;12.222;2023-02-01T08:56:09;104.05;;;55.08;;
30824;SDS011;17550;45.486;12.222;2023-02-01T08:58:36;101.43;;;54.15;;
30824;SDS011;17550;45.486;12.222;2023-02-01T09:01:02;112.28;;;55.67;;
30824;SDS011;17550;45.486;12.222;2023-02-01T09:03:29;105.47;;;57.13;;
30824;SDS011;17550;45.486;12.222;2023-02-01T09:06:05;113.25;;;57.33;;
30824;SDS011;17550;45.486;12.222;2023-02-01T09:08:33;117.07;;;56.65;;
30824;SDS011;17550;45.486;12.222;2023-02-01T09:11:00;100.47;;;53.30;;
30824;SDS011;17550;45.486;12.222;2023-02-01T09:13:27;114.95;;;55.70;;
30824;SDS011;17550;45.486;12.222;2023-02-01T09:15:53;103.90;;;53.70;;
30824;SDS011;17550;45.486;12.222;2023-02-01T09:18:19;107.22;;;56.53;;
30824;SDS011;17550;45.486;12.222;2023-02-01T09:20:45;121.13;;;59.90;;
30824;SDS011;17550;45.486;12.222;2023-02-01T09:23:11;128.02;;;65.15;;
30824;SDS011;17550;45.486;12.222;2023-02-01T09:25:37;120.82;;;63.03;;
30824;SDS011;17550;45.486;12.222;2023-02-01T09:28:03;122.63;;;60.90;;
30824;SDS011;17550;45.486;12.222;2023-02-01T09:30:33;122.95;;;62.35;;
30824;SDS011;17550;45.486;12.222;2023-02-01T09:32:59;116.53;;;62.80;;
30824;SDS011;17550;45.486;12.222;2023-02-01T09:35:27;116.88;;;61.60;;
30824;SDS011;17550;45.486;12.222;2023-02-01T09:37:53;123.43;;;65.35;;
30824;SDS011;17550;45.486;12.222;2023-02-01T09:40:19;127.85;;;64.55;;
30824;SDS011;17550;45.486;12.222;2023-02-01T09:45:38;134.65;;;65.82;;
30824;SDS011;17550;45.486;12.222;2023-02-01T09:48:16;115.70;;;61.95;;
30824;SDS011;17550;45.486;12.222;2023-02-01T09:50:51;126.45;;;65.63;;
30824;SDS011;17550;45.486;12.222;2023-02-01T09:53:33;122.43;;;64.75;;
30824;SDS011;17550;45.486;12.222;2023-02-01T09:56:12;119.80;;;62.75;;
30824;SDS011;17550;45.486;12.222;2023-02-01T09:58:50;125.07;;;63.08;;
30824;SDS011;17550;45.486;12.222;2023-02-01T10:01:25;123.22;;;63.67;;
30824;SDS011;17550;45.486;12.222;2023-02-01T10:03:53;122.57;;;61.58;;
30824;SDS011;17550;45.486;12.222;2023-02-01T10:06:33;119.50;;;61.83;;
30824;SDS011;17550;45.486;12.222;2023-02-01T10:14:28;125.95;;;64.85;;
30824;SDS011;17550;45.486;12.222;2023-02-01T10:22:27;122.60;;;66.38;;
30824;SDS011;17550;45.486;12.222;2023-02-01T10:25:26;125.20;;;65.10;;
30824;SDS011;17550;45.486;12.222;2023-02-01T10:28:04;132.75;;;69.47;;
30824;SDS011;17550;45.486;12.222;2023-02-01T10:30:40;126.10;;;68.30;;
30824;SDS011;17550;45.486;12.222;2023-02-01T10:35:44;131.45;;;71.35;;
30824;SDS011;17550;45.486;12.222;2023-02-01T10:38:32;138.15;;;72.93;;
30824;SDS011;17550;45.486;12.222;2023-02-01T10:41:08;129.88;;;68.28;;
30824;SDS011;17550;45.486;12.222;2023-02-01T10:43:40;130.27;;;67.30;;
30824;SDS011;17550;45.486;12.222;2023-02-01T10:46:06;130.10;;;68.68;;
30824;SDS011;17550;45.486;12.222;2023-02-01T10:48:33;137.18;;;68.63;;
30824;SDS011;17550;45.486;12.222;2023-02-01T10:51:03;128.35;;;65.80;;
30824;SDS011;17550;45.486;12.222;2023-02-01T10:53:42;127.23;;;68.33;;
30824;SDS011;17550;45.486;12.222;2023-02-01T10:56:10;132.00;;;68.05;;
30824;SDS011;17550;45.486;12.222;2023-02-01T10:58:47;137.25;;;73.88;;
30824;SDS011;17550;45.486;12.222;2023-02-01T11:04:13;120.20;;;64.43;;
30824;SDS011;17550;45.486;12.222;2023-02-01T11:06:42;124.82;;;64.65;;
30824;SDS011;17550;45.486;12.222;2023-02-01T11:09:11;131.50;;;67.20;;
30824;SDS011;17550;45.486;12.222;2023-02-01T11:16:54;124.03;;;66.05;;
30824;SDS011;17550;45.486;12.222;2023-02-01T11:21:49;124.10;;;65.22;;
30824;SDS011;17550;45.486;12.222;2023-02-01T11:24:23;118.75;;;65.50;;
30824;SDS011;17550;45.486;12.222;2023-02-01T11:26:59;113.03;;;63.45;;
30824;SDS011;17550;45.486;12.222;2023-02-01T11:29:28;127.15;;;67.85;;
30824;SDS011;17550;45.486;12.222;2023-02-01T11:31:59;131.15;;;68.40;;
30824;SDS011;17550;45.486;12.222;2023-02-01T11:34:28;121.78;;;67.07;;
30824;SDS011;17550;45.486;12.222;2023-02-01T11:37:03;125.93;;;67.13;;
30824;SDS011;17550;45.486;12.222;2023-02-01T11:39:30;126.35;;;66.70;;
30824;SDS011;17550;45.486;12.222;2023-02-01T11:44:41;126.13;;;69.03;;
30824;SDS011;17550;45.486;12.222;2023-02-01T11:47:22;123.10;;;68.22;;
30824;SDS011;17550;45.486;12.222;2023-02-01T11:49:50;116.80;;;65.88;;
30824;SDS011;17550;45.486;12.222;2023-02-01T11:54:51;124.75;;;66.32;;
30824;SDS011;17550;45.486;12.222;2023-02-01T11:57:43;117.75;;;63.80;;
30824;SDS011;17550;45.486;12.222;2023-02-01T12:20:15;126.18;;;67.90;;
30824;SDS011;17550;45.486;12.222;2023-02-01T12:36:40;129.90;;;71.22;;
30824;SDS011;17550;45.486;12.222;2023-02-01T12:41:58;130.65;;;70.97;;
30824;SDS011;17550;45.486;12.222;2023-02-01T12:44:47;131.30;;;72.43;;
30824;SDS011;17550;45.486;12.222;2023-02-01T12:50:18;133.65;;;71.57;;
30824;SDS011;17550;45.486;12.222;2023-02-01T12:52:54;133.45;;;71.93;;
30824;SDS011;17550;45.486;12.222;2023-02-01T12:58:11;128.18;;;68.45;;
30824;SDS011;17550;45.486;12.222;2023-02-01T13:00:45;97.63;;;51.73;;
30824;SDS011;17550;45.486;12.222;2023-02-01T13:08:42;128.27;;;71.05;;
30824;SDS011;17550;45.486;12.222;2023-02-01T13:11:29;123.13;;;69.32;;
30824;SDS011;17550;45.486;12.222;2023-02-01T13:16:40;131.75;;;72.85;;
30824;SDS011;17550;45.486;12.222;2023-02-01T13:21:42;121.85;;;69.43;;
30824;SDS011;17550;45.486;12.222;2023-02-01T13:26:55;124.50;;;69.90;;
30824;SDS011;17550;45.486;12.222;2023-02-01T13:29:22;129.02;;;71.68;;
30824;SDS011;17550;45.486;12.222;2023-02-01T13:32:02;124.07;;;68.97;;
30824;SDS011;17550;45.486;12.222;2023-02-01T13:40:09;129.95;;;68.60;;
30824;SDS011;17550;45.486;12.222;2023-02-01T13:42:50;128.43;;;69.22;;
30824;SDS011;17550;45.486;12.222;2023-02-01T13:45:24;122.78;;;67.43;;
30824;SDS011;17550;45.486;12.222;2023-02-01T13:47:57;116.35;;;65.60;;
30824;SDS011;17550;45.486;12.222;2023-02-01T13:50:38;119.25;;;65.60;;
30824;SDS011;17550;45.486;12.222;2023-02-01T13:55:41;115.68;;;66.38;;
30824;SDS011;17550;45.486;12.222;2023-02-01T14:03:47;113.65;;;62.33;;
30824;SDS011;17550;45.486;12.222;2023-02-01T14:21:49;105.55;;;56.63;;
30824;SDS011;17550;45.486;12.222;2023-02-01T14:24:33;120.45;;;64.97;;
30824;SDS011;17550;45.486;12.222;2023-02-01T14:29:42;114.78;;;62.58;;
30824;SDS011;17550;45.486;12.222;2023-02-01T14:32:19;121.80;;;67.70;;
30824;SDS011;17550;45.486;12.222;2023-02-01T14:47:47;126.32;;;68.38;;
30824;SDS011;17550;45.486;12.222;2023-02-01T15:04:11;127.63;;;68.75;;
30824;SDS011;17550;45.486;12.222;2023-02-01T15:06:49;125.07;;;67.32;;
30824;SDS011;17550;45.486;12.222;2023-02-01T15:09:38;124.53;;;65.20;;
30824;SDS011;17550;45.486;12.222;2023-02-01T15:14:43;126.47;;;66.03;;
30824;SDS011;17550;45.486;12.222;2023-02-01T15:17:18;119.95;;;65.78;;
30824;SDS011;17550;45.486;12.222;2023-02-01T15:22:27;134.02;;;69.70;;
30824;SDS011;17550;45.486;12.222;2023-02-01T15:25:00;122.63;;;66.10;;
30824;SDS011;17550;45.486;12.222;2023-02-01T15:27:29;125.27;;;67.90;;
30824;SDS011;17550;45.486;12.222;2023-02-01T15:30:06;125.20;;;65.93;;
30824;SDS011;17550;45.486;12.222;2023-02-01T15:32:37;134.27;;;67.95;;
30824;SDS011;17550;45.486;12.222;2023-02-01T15:35:04;126.22;;;67.65;;
30824;SDS011;17550;45.486;12.222;2023-02-01T15:37:31;129.27;;;69.85;;
30824;SDS011;17550;45.486;12.222;2023-02-01T15:42:35;132.07;;;68.00;;
30824;SDS011;17550;45.486;12.222;2023-02-01T15:45:17;131.55;;;69.97;;
30824;SDS011;17550;45.486;12.222;2023-02-01T15:47:46;132.55;;;69.70;;
30824;SDS011;17550;45.486;12.222;2023-02-01T15:50:18;131.15;;;68.90;;
30824;SDS011;17550;45.486;12.222;2023-02-01T15:52:46;126.65;;;66.82;;
30824;SDS011;17550;45.486;12.222;2023-02-01T15:58:08;139.52;;;69.90;;
30824;SDS011;17550;45.486;12.222;2023-02-01T16:00:50;126.50;;;65.82;;
30824;SDS011;17550;45.486;12.222;2023-02-01T16:03:37;143.75;;;71.03;;
30824;SDS011;17550;45.486;12.222;2023-02-01T16:08:36;144.43;;;75.45;;
30824;SDS011;17550;45.486;12.222;2023-02-01T16:13:34;152.93;;;79.35;;
30824;SDS011;17550;45.486;12.222;2023-02-01T16:16:00;157.50;;;78.22;;
30824;SDS011;17550;45.486;12.222;2023-02-01T16:18:27;150.15;;;78.22;;
30824;SDS011;17550;45.486;12.222;2023-02-01T16:20:52;152.38;;;79.22;;
30824;SDS011;17550;45.486;12.222;2023-02-01T16:23:18;159.93;;;80.47;;
30824;SDS011;17550;45.486;12.222;2023-02-01T16:25:45;162.27;;;85.38;;
30824;SDS011;17550;45.486;12.222;2023-02-01T16:28:14;157.77;;;81.72;;
30824;SDS011;17550;45.486;12.222;2023-02-01T16:30:40;157.15;;;79.95;;
30824;SDS011;17550;45.486;12.222;2023-02-01T16:33:05;165.27;;;84.80;;
30824;SDS011;17550;45.486;12.222;2023-02-01T16:35:37;160.82;;;82.72;;
30824;SDS011;17550;45.486;12.222;2023-02-01T16:38:04;218.48;;;104.32;;
30824;SDS011;17550;45.486;12.222;2023-02-01T16:40:37;270.73;;;120.40;;
30824;SDS011;17550;45.486;12.222;2023-02-01T16:45:38;230.87;;;110.13;;
30824;SDS011;17550;45.486;12.222;2023-02-01T16:48:05;214.45;;;104.03;;
30824;SDS011;17550;45.486;12.222;2023-02-01T16:50:31;184.05;;;88.47;;
30824;SDS011;17550;45.486;12.222;2023-02-01T16:52:58;176.75;;;85.05;;
30824;SDS011;17550;45.486;12.222;2023-02-01T16:55:26;199.38;;;92.82;;
30824;SDS011;17550;45.486;12.222;2023-02-01T16:57:52;208.10;;;97.93;;
30824;SDS011;17550;45.486;12.222;2023-02-01T17:00:18;198.73;;;94.95;;
30824;SDS011;17550;45.486;12.222;2023-02-01T17:02:45;200.00;;;98.18;;
30824;SDS011;17550;45.486;12.222;2023-02-01T17:05:11;195.15;;;91.55;;
30824;SDS011;17550;45.486;12.222;2023-02-01T17:07:37;188.07;;;93.30;;
30824;SDS011;17550;45.486;12.222;2023-02-01T17:10:05;194.05;;;92.78;;
30824;SDS011;17550;45.486;12.222;2023-02-01T17:12:32;199.70;;;98.97;;
30824;SDS011;17550;45.486;12.222;2023-02-01T17:14:58;198.88;;;96.53;;
30824;SDS011;17550;45.486;12.222;2023-02-01T17:17:30;195.02;;;94.70;;
30824;SDS011;17550;45.486;12.222;2023-02-01T17:20:00;200.85;;;100.20;;
30824;SDS011;17550;45.486;12.222;2023-02-01T17:22:26;182.90;;;92.60;;
30824;SDS011;17550;45.486;12.222;2023-02-01T17:24:51;194.90;;;96.65;;
30824;SDS011;17550;45.486;12.222;2023-02-01T17:27:18;198.50;;;98.60;;
30824;SDS011;17550;45.486;12.222;2023-02-01T17:29:43;341.90;;;150.85;;